sensor_id;sensor_type;location;lat;lon;timestamp;P1;durP1;ratioP1;P2;durP2;ratioP2
61960;SDS011;47923;42.506;24.192;2022-08-21T00:01:43;13.18;;;3.42;;
61960;SDS011;47923;42.506;24.192;2022-08-21T00:04:10;10.45;;;3.90;;
61960;SDS011;47923;42.506;24.192;2022-08-21T00:06:36;10.43;;;3.50;;
61960;SDS011;47923;42.506;24.192;2022-08-21T00:09:02;12.70;;;4.28;;
61960;SDS011;47923;42.506;24.192;2022-08-21T00:11:30;12.90;;;4.63;;
61960;SDS011;47923;42.506;24.192;2022-08-21T00:13:56;9.45;;;3.85;;
61960;SDS011;47923;42.506;24.192;2022-08-21T00:16:22;18.98;;;4.60;;
61960;SDS011;47923;42.506;24.192;2022-08-21T00:18:48;10.57;;;3.97;;
61960;SDS011;47923;42.506;24.192;2022-08-21T00:21:13;11.50;;;4.45;;
61960;SDS011;47923;42.506;24.192;2022-08-21T00:23:39;11.70;;;4.45;;
61960;SDS011;47923;42.506;24.192;2022-08-21T00:26:05;15.43;;;4.53;;
61960;SDS011;47923;42.506;24.192;2022-08-21T00:28:31;13.15;;;4.65;;
61960;SDS011;47923;42.506;24.192;2022-08-21T00:30:57;14.85;;;4.18;;
61960;SDS011;47923;42.506;24.192;2022-08-21T00:33:22;10.40;;;4.80;;
61960;SDS011;47923;42.506;24.192;2022-08-21T00:35:49;12.93;;;4.22;;
61960;SDS011;47923;42.506;24.192;2022-08-21T00:38:14;11.00;;;4.15;;
61960;SDS011;47923;42.506;24.192;2022-08-21T00:40:42;11.55;;;3.70;;
61960;SDS011;47923;42.506;24.192;2022-08-21T00:43:11;10.25;;;3.47;;
61960;SDS011;47923;42.506;24.192;2022-08-21T00:45:39;8.88;;;3.55;;
61960;SDS011;47923;42.506;24.192;2022-08-21T00:48:05;10.05;;;3.53;;
61960;SDS011;47923;42.506;24.192;2022-08-21T00:50:32;9.98;;;4.00;;
61960;SDS011;47923;42.506;24.192;2022-08-21T00:53:00;10.27;;;3.80;;
61960;SDS011;47923;42.506;24.192;2022-08-21T00:55:27;12.23;;;3.80;;
61960;SDS011;47923;42.506;24.192;2022-08-21T00:57:55;10.77;;;3.60;;
61960;SDS011;47923;42.506;24.192;2022-08-21T01:00:25;10.40;;;3.70;;
61960;SDS011;47923;42.506;24.192;2022-08-21T01:02:54;9.30;;;3.47;;
61960;SDS011;47923;42.506;24.192;2022-08-21T01:05:20;10.43;;;4.07;;
61960;SDS011;47923;42.506;24.192;2022-08-21T01:07:46;9.98;;;3.97;;
61960;SDS011;47923;42.506;24.192;2022-08-21T01:10:12;14.00;;;4.60;;
61960;SDS011;47923;42.506;24.192;2022-08-21T01:12:39;11.93;;;3.80;;
61960;SDS011;47923;42.506;24.192;2022-08-21T01:15:06;10.35;;;3.92;;
61960;SDS011;47923;42.506;24.192;2022-08-21T01:17:35;9.90;;;3.53;;
61960;SDS011;47923;42.506;24.192;2022-08-21T01:20:04;10.70;;;3.63;;
61960;SDS011;47923;42.506;24.192;2022-08-21T01:22:32;10.85;;;3.67;;
61960;SDS011;47923;42.506;24.192;2022-08-21T01:24:57;9.27;;;4.25;;
61960;SDS011;47923;42.506;24.192;2022-08-21T01:27:23;13.48;;;4.38;;
61960;SDS011;47923;42.506;24.192;2022-08-21T01:32:22;10.23;;;4.13;;
61960;SDS011;47923;42.506;24.192;2022-08-21T01:34:50;9.73;;;4.00;;
61960;SDS011;47923;42.506;24.192;2022-08-21T01:37:16;10.20;;;4.18;;
61960;SDS011;47923;42.506;24.192;2022-08-21T01:39:44;6.93;;;3.15;;
61960;SDS011;47923;42.506;24.192;2022-08-21T01:42:11;12.85;;;3.92;;
61960;SDS011;47923;42.506;24.192;2022-08-21T01:44:37;11.05;;;3.92;;
61960;SDS011;47923;42.506;24.192;2022-08-21T01:47:04;10.55;;;3.28;;
61960;SDS011;47923;42.506;24.192;2022-08-21T01:49:33;7.50;;;3.20;;
61960;SDS011;47923;42.506;24.192;2022-08-21T01:52:00;8.05;;;3.30;;
61960;SDS011;47923;42.506;24.192;2022-08-21T01:54:26;10.32;;;3.13;;
61960;SDS011;47923;42.506;24.192;2022-08-21T01:56:52;11.23;;;4.50;;
61960;SDS011;47923;42.506;24.192;2022-08-21T01:59:20;15.10;;;3.95;;
61960;SDS011;47923;42.506;24.192;2022-08-21T02:01:47;9.18;;;3.90;;
61960;SDS011;47923;42.506;24.192;2022-08-21T02:04:13;9.60;;;3.60;;
61960;SDS011;47923;42.506;24.192;2022-08-21T02:06:38;9.13;;;3.65;;
61960;SDS011;47923;42.506;24.192;2022-08-21T02:09:04;8.25;;;2.83;;
61960;SDS011;47923;42.506;24.192;2022-08-21T02:11:32;10.60;;;3.58;;
61960;SDS011;47923;42.506;24.192;2022-08-21T02:13:58;9.75;;;3.97;;
61960;SDS011;47923;42.506;24.192;2022-08-21T02:16:24;10.05;;;3.60;;
61960;SDS011;47923;42.506;24.192;2022-08-21T02:18:49;9.18;;;3.90;;
61960;SDS011;47923;42.506;24.192;2022-08-21T02:21:15;7.55;;;3.55;;
61960;SDS011;47923;42.506;24.192;2022-08-21T02:23:41;9.15;;;3.72;;
61960;SDS011;47923;42.506;24.192;2022-08-21T02:26:07;10.80;;;3.67;;
61960;SDS011;47923;42.506;24.192;2022-08-21T02:28:33;10.68;;;4.47;;
61960;SDS011;47923;42.506;24.192;2022-08-21T02:31:00;14.43;;;4.50;;
61960;SDS011;47923;42.506;24.192;2022-08-21T02:33:26;8.70;;;3.70;;
61960;SDS011;47923;42.506;24.192;2022-08-21T02:35:52;9.85;;;3.95;;
61960;SDS011;47923;42.506;24.192;2022-08-21T02:38:20;8.48;;;3.47;;
61960;SDS011;47923;42.506;24.192;2022-08-21T02:40:47;11.48;;;3.65;;
61960;SDS011;47923;42.506;24.192;2022-08-21T02:43:17;13.70;;;4.63;;
61960;SDS011;47923;42.506;24.192;2022-08-21T02:45:45;10.25;;;3.63;;
61960;SDS011;47923;42.506;24.192;2022-08-21T02:48:14;9.93;;;3.60;;
61960;SDS011;47923;42.506;24.192;2022-08-21T02:51:04;9.88;;;3.55;;
61960;SDS011;47923;42.506;24.192;2022-08-21T02:53:33;9.00;;;3.47;;
61960;SDS011;47923;42.506;24.192;2022-08-21T02:56:03;9.30;;;3.38;;
61960;SDS011;47923;42.506;24.192;2022-08-21T02:58:38;8.93;;;3.42;;
61960;SDS011;47923;42.506;24.192;2022-08-21T03:01:06;9.13;;;3.40;;
61960;SDS011;47923;42.506;24.192;2022-08-21T03:03:39;9.75;;;2.78;;
61960;SDS011;47923;42.506;24.192;2022-08-21T03:06:07;10.07;;;2.83;;
61960;SDS011;47923;42.506;24.192;2022-08-21T03:08:34;9.73;;;3.15;;
61960;SDS011;47923;42.506;24.192;2022-08-21T03:11:00;6.97;;;2.65;;
61960;SDS011;47923;42.506;24.192;2022-08-21T03:13:26;7.18;;;3.08;;
61960;SDS011;47923;42.506;24.192;2022-08-21T03:15:53;10.73;;;2.90;;
61960;SDS011;47923;42.506;24.192;2022-08-21T03:18:18;9.10;;;2.50;;
61960;SDS011;47923;42.506;24.192;2022-08-21T03:20:45;9.30;;;3.00;;
61960;SDS011;47923;42.506;24.192;2022-08-21T03:23:11;8.43;;;3.38;;
61960;SDS011;47923;42.506;24.192;2022-08-21T03:25:38;8.95;;;3.25;;
61960;SDS011;47923;42.506;24.192;2022-08-21T03:28:05;8.57;;;2.90;;
61960;SDS011;47923;42.506;24.192;2022-08-21T03:30:32;8.98;;;2.67;;
61960;SDS011;47923;42.506;24.192;2022-08-21T03:32:58;7.60;;;2.97;;
61960;SDS011;47923;42.506;24.192;2022-08-21T03:35:24;6.25;;;2.80;;
61960;SDS011;47923;42.506;24.192;2022-08-21T03:37:51;8.35;;;3.03;;
61960;SDS011;47923;42.506;24.192;2022-08-21T03:40:17;10.57;;;2.90;;
61960;SDS011;47923;42.506;24.192;2022-08-21T03:42:44;7.95;;;2.15;;
61960;SDS011;47923;42.506;24.192;2022-08-21T03:45:12;9.10;;;3.30;;
61960;SDS011;47923;42.506;24.192;2022-08-21T03:47:38;9.50;;;2.80;;
61960;SDS011;47923;42.506;24.192;2022-08-21T03:50:04;11.15;;;3.45;;
61960;SDS011;47923;42.506;24.192;2022-08-21T03:52:30;7.47;;;2.60;;
61960;SDS011;47923;42.506;24.192;2022-08-21T03:54:59;7.60;;;2.60;;
61960;SDS011;47923;42.506;24.192;2022-08-21T03:57:24;7.72;;;2.58;;
61960;SDS011;47923;42.506;24.192;2022-08-21T03:59:49;8.45;;;2.90;;
61960;SDS011;47923;42.506;24.192;2022-08-21T04:02:16;12.00;;;4.10;;
61960;SDS011;47923;42.506;24.192;2022-08-21T04:04:45;8.70;;;3.10;;
61960;SDS011;47923;42.506;24.192;2022-08-21T04:07:11;10.20;;;3.17;;
61960;SDS011;47923;42.506;24.192;2022-08-21T04:09:36;10.68;;;3.30;;
61960;SDS011;47923;42.506;24.192;2022-08-21T04:12:02;10.68;;;3.40;;
61960;SDS011;47923;42.506;24.192;2022-08-21T04:14:28;9.65;;;2.97;;
61960;SDS011;47923;42.506;24.192;2022-08-21T04:16:55;8.50;;;3.55;;
61960;SDS011;47923;42.506;24.192;2022-08-21T04:19:20;8.85;;;3.30;;
61960;SDS011;47923;42.506;24.192;2022-08-21T04:21:46;11.57;;;3.22;;
61960;SDS011;47923;42.506;24.192;2022-08-21T04:24:11;9.20;;;2.90;;
61960;SDS011;47923;42.506;24.192;2022-08-21T04:26:37;8.32;;;2.70;;
61960;SDS011;47923;42.506;24.192;2022-08-21T04:29:04;9.00;;;3.50;;
61960;SDS011;47923;42.506;24.192;2022-08-21T04:31:32;10.80;;;3.13;;
61960;SDS011;47923;42.506;24.192;2022-08-21T04:33:58;12.85;;;3.83;;
61960;SDS011;47923;42.506;24.192;2022-08-21T04:36:24;9.77;;;3.47;;
61960;SDS011;47923;42.506;24.192;2022-08-21T04:38:50;11.48;;;3.35;;
61960;SDS011;47923;42.506;24.192;2022-08-21T04:41:15;7.97;;;2.95;;
61960;SDS011;47923;42.506;24.192;2022-08-21T04:43:41;8.90;;;2.90;;
61960;SDS011;47923;42.506;24.192;2022-08-21T04:46:07;10.15;;;3.63;;
61960;SDS011;47923;42.506;24.192;2022-08-21T04:48:33;9.95;;;3.88;;
61960;SDS011;47923;42.506;24.192;2022-08-21T04:51:07;10.43;;;3.30;;
61960;SDS011;47923;42.506;24.192;2022-08-21T04:56:08;10.13;;;3.60;;
61960;SDS011;47923;42.506;24.192;2022-08-21T04:58:37;11.27;;;3.28;;
61960;SDS011;47923;42.506;24.192;2022-08-21T05:01:04;9.30;;;3.28;;
61960;SDS011;47923;42.506;24.192;2022-08-21T05:03:33;10.15;;;3.40;;
61960;SDS011;47923;42.506;24.192;2022-08-21T05:06:02;8.90;;;3.33;;
61960;SDS011;47923;42.506;24.192;2022-08-21T05:08:30;9.90;;;3.08;;
61960;SDS011;47923;42.506;24.192;2022-08-21T05:10:56;12.88;;;3.50;;
61960;SDS011;47923;42.506;24.192;2022-08-21T05:13:22;8.40;;;3.17;;
61960;SDS011;47923;42.506;24.192;2022-08-21T05:15:47;9.70;;;3.45;;
61960;SDS011;47923;42.506;24.192;2022-08-21T05:18:12;8.18;;;3.30;;
61960;SDS011;47923;42.506;24.192;2022-08-21T05:20:38;8.93;;;3.45;;
61960;SDS011;47923;42.506;24.192;2022-08-21T05:23:10;10.55;;;3.80;;
61960;SDS011;47923;42.506;24.192;2022-08-21T05:25:38;12.15;;;3.92;;
61960;SDS011;47923;42.506;24.192;2022-08-21T05:28:05;9.88;;;4.07;;
61960;SDS011;47923;42.506;24.192;2022-08-21T05:30:31;11.95;;;4.15;;
61960;SDS011;47923;42.506;24.192;2022-08-21T05:32:58;11.02;;;3.35;;
61960;SDS011;47923;42.506;24.192;2022-08-21T05:35:25;8.20;;;3.63;;
61960;SDS011;47923;42.506;24.192;2022-08-21T05:37:51;10.77;;;3.92;;
61960;SDS011;47923;42.506;24.192;2022-08-21T05:40:17;10.55;;;3.95;;
61960;SDS011;47923;42.506;24.192;2022-08-21T05:42:43;10.75;;;3.25;;
61960;SDS011;47923;42.506;24.192;2022-08-21T05:45:08;9.88;;;4.03;;
61960;SDS011;47923;42.506;24.192;2022-08-21T05:47:34;9.98;;;4.13;;
61960;SDS011;47923;42.506;24.192;2022-08-21T05:50:00;13.70;;;4.18;;
61960;SDS011;47923;42.506;24.192;2022-08-21T05:52:25;13.23;;;4.18;;
61960;SDS011;47923;42.506;24.192;2022-08-21T05:54:51;9.73;;;3.63;;
61960;SDS011;47923;42.506;24.192;2022-08-21T05:57:18;9.60;;;4.03;;
61960;SDS011;47923;42.506;24.192;2022-08-21T05:59:44;9.98;;;4.22;;
61960;SDS011;47923;42.506;24.192;2022-08-21T06:02:10;10.50;;;3.92;;
61960;SDS011;47923;42.506;24.192;2022-08-21T06:04:36;11.15;;;4.22;;
61960;SDS011;47923;42.506;24.192;2022-08-21T06:07:04;14.20;;;4.88;;
61960;SDS011;47923;42.506;24.192;2022-08-21T06:09:30;12.25;;;6.82;;
61960;SDS011;47923;42.506;24.192;2022-08-21T06:11:57;11.10;;;5.05;;
61960;SDS011;47923;42.506;24.192;2022-08-21T06:14:22;13.90;;;4.85;;
61960;SDS011;47923;42.506;24.192;2022-08-21T06:16:47;14.10;;;5.35;;
61960;SDS011;47923;42.506;24.192;2022-08-21T06:19:13;14.15;;;4.90;;
61960;SDS011;47923;42.506;24.192;2022-08-21T06:21:38;12.65;;;4.30;;
61960;SDS011;47923;42.506;24.192;2022-08-21T06:24:05;11.65;;;4.25;;
61960;SDS011;47923;42.506;24.192;2022-08-21T06:26:32;7.18;;;3.72;;
61960;SDS011;47923;42.506;24.192;2022-08-21T06:28:58;14.25;;;4.32;;
61960;SDS011;47923;42.506;24.192;2022-08-21T06:31:25;11.57;;;4.07;;
61960;SDS011;47923;42.506;24.192;2022-08-21T06:33:52;9.55;;;3.55;;
61960;SDS011;47923;42.506;24.192;2022-08-21T06:36:19;10.98;;;3.47;;
61960;SDS011;47923;42.506;24.192;2022-08-21T06:38:45;9.75;;;3.60;;
61960;SDS011;47923;42.506;24.192;2022-08-21T06:41:11;11.43;;;3.78;;
61960;SDS011;47923;42.506;24.192;2022-08-21T06:43:39;11.18;;;3.88;;
61960;SDS011;47923;42.506;24.192;2022-08-21T06:46:04;9.68;;;2.88;;
61960;SDS011;47923;42.506;24.192;2022-08-21T06:48:30;9.90;;;3.42;;
61960;SDS011;47923;42.506;24.192;2022-08-21T06:50:58;6.63;;;3.10;;
61960;SDS011;47923;42.506;24.192;2022-08-21T06:53:24;8.40;;;2.88;;
61960;SDS011;47923;42.506;24.192;2022-08-21T06:55:50;10.77;;;3.78;;
61960;SDS011;47923;42.506;24.192;2022-08-21T06:58:16;11.38;;;3.88;;
61960;SDS011;47923;42.506;24.192;2022-08-21T07:00:44;11.63;;;3.38;;
61960;SDS011;47923;42.506;24.192;2022-08-21T07:03:23;8.68;;;3.17;;
61960;SDS011;47923;42.506;24.192;2022-08-21T07:05:50;11.18;;;3.72;;
61960;SDS011;47923;42.506;24.192;2022-08-21T07:08:16;12.07;;;3.90;;
61960;SDS011;47923;42.506;24.192;2022-08-21T07:10:42;11.90;;;4.20;;
61960;SDS011;47923;42.506;24.192;2022-08-21T07:13:08;10.60;;;4.32;;
61960;SDS011;47923;42.506;24.192;2022-08-21T07:15:33;16.85;;;5.22;;
61960;SDS011;47923;42.506;24.192;2022-08-21T07:17:59;13.55;;;4.70;;
61960;SDS011;47923;42.506;24.192;2022-08-21T07:20:25;10.05;;;4.45;;
61960;SDS011;47923;42.506;24.192;2022-08-21T07:22:52;9.57;;;4.13;;
61960;SDS011;47923;42.506;24.192;2022-08-21T07:25:18;8.68;;;3.85;;
61960;SDS011;47923;42.506;24.192;2022-08-21T07:27:43;12.45;;;4.40;;
61960;SDS011;47923;42.506;24.192;2022-08-21T07:30:09;11.02;;;4.45;;
61960;SDS011;47923;42.506;24.192;2022-08-21T07:32:35;13.30;;;4.30;;
61960;SDS011;47923;42.506;24.192;2022-08-21T07:35:00;8.90;;;4.35;;
61960;SDS011;47923;42.506;24.192;2022-08-21T07:37:25;13.07;;;4.82;;
61960;SDS011;47923;42.506;24.192;2022-08-21T07:39:51;11.27;;;4.95;;
61960;SDS011;47923;42.506;24.192;2022-08-21T07:42:16;12.80;;;4.72;;
61960;SDS011;47923;42.506;24.192;2022-08-21T07:44:42;8.60;;;4.57;;
61960;SDS011;47923;42.506;24.192;2022-08-21T07:47:08;8.75;;;4.55;;
61960;SDS011;47923;42.506;24.192;2022-08-21T07:49:33;9.93;;;5.28;;
61960;SDS011;47923;42.506;24.192;2022-08-21T07:51:59;9.82;;;4.57;;
61960;SDS011;47923;42.506;24.192;2022-08-21T07:54:25;15.27;;;5.30;;
61960;SDS011;47923;42.506;24.192;2022-08-21T07:56:50;11.52;;;5.38;;
61960;SDS011;47923;42.506;24.192;2022-08-21T07:59:16;14.10;;;5.15;;
61960;SDS011;47923;42.506;24.192;2022-08-21T08:01:41;15.05;;;5.70;;
61960;SDS011;47923;42.506;24.192;2022-08-21T08:04:07;13.68;;;5.22;;
61960;SDS011;47923;42.506;24.192;2022-08-21T08:06:32;11.90;;;5.18;;
61960;SDS011;47923;42.506;24.192;2022-08-21T08:08:58;11.45;;;4.35;;
61960;SDS011;47923;42.506;24.192;2022-08-21T08:11:23;9.27;;;4.82;;
61960;SDS011;47923;42.506;24.192;2022-08-21T08:13:49;11.25;;;5.20;;
61960;SDS011;47923;42.506;24.192;2022-08-21T08:16:17;12.95;;;5.35;;
61960;SDS011;47923;42.506;24.192;2022-08-21T08:18:43;13.07;;;5.07;;
61960;SDS011;47923;42.506;24.192;2022-08-21T08:21:10;13.90;;;5.13;;
61960;SDS011;47923;42.506;24.192;2022-08-21T08:23:36;13.13;;;5.13;;
61960;SDS011;47923;42.506;24.192;2022-08-21T08:26:02;10.52;;;5.18;;
61960;SDS011;47923;42.506;24.192;2022-08-21T08:28:28;11.32;;;5.15;;
61960;SDS011;47923;42.506;24.192;2022-08-21T08:30:54;13.38;;;5.13;;
61960;SDS011;47923;42.506;24.192;2022-08-21T08:33:20;9.13;;;4.13;;
61960;SDS011;47923;42.506;24.192;2022-08-21T08:35:48;12.18;;;4.60;;
61960;SDS011;47923;42.506;24.192;2022-08-21T08:38:15;11.30;;;4.68;;
61960;SDS011;47923;42.506;24.192;2022-08-21T08:43:33;11.45;;;4.63;;
61960;SDS011;47923;42.506;24.192;2022-08-21T08:46:01;9.80;;;4.40;;
61960;SDS011;47923;42.506;24.192;2022-08-21T08:51:12;12.55;;;4.63;;
61960;SDS011;47923;42.506;24.192;2022-08-21T08:53:58;11.13;;;4.32;;
61960;SDS011;47923;42.506;24.192;2022-08-21T08:56:29;9.15;;;3.55;;
61960;SDS011;47923;42.506;24.192;2022-08-21T08:58:59;6.28;;;3.20;;
61960;SDS011;47923;42.506;24.192;2022-08-21T09:01:32;8.65;;;4.20;;
61960;SDS011;47923;42.506;24.192;2022-08-21T09:03:57;8.77;;;4.07;;
61960;SDS011;47923;42.506;24.192;2022-08-21T09:11:52;9.52;;;3.60;;
61960;SDS011;47923;42.506;24.192;2022-08-21T09:14:47;10.55;;;4.00;;
61960;SDS011;47923;42.506;24.192;2022-08-21T09:17:26;8.88;;;3.97;;
61960;SDS011;47923;42.506;24.192;2022-08-21T09:20:03;15.90;;;4.60;;
61960;SDS011;47923;42.506;24.192;2022-08-21T09:25:10;9.25;;;3.88;;
61960;SDS011;47923;42.506;24.192;2022-08-21T09:27:43;9.82;;;3.83;;
61960;SDS011;47923;42.506;24.192;2022-08-21T09:30:09;11.00;;;3.92;;
61960;SDS011;47923;42.506;24.192;2022-08-21T09:32:35;9.60;;;4.60;;
61960;SDS011;47923;42.506;24.192;2022-08-21T09:35:10;10.45;;;4.88;;
61960;SDS011;47923;42.506;24.192;2022-08-21T09:37:46;8.05;;;4.03;;
61960;SDS011;47923;42.506;24.192;2022-08-21T09:40:18;8.68;;;3.80;;
61960;SDS011;47923;42.506;24.192;2022-08-21T09:43:04;13.60;;;4.90;;
61960;SDS011;47923;42.506;24.192;2022-08-21T09:45:42;11.25;;;4.78;;
61960;SDS011;47923;42.506;24.192;2022-08-21T09:48:22;12.50;;;4.65;;
61960;SDS011;47923;42.506;24.192;2022-08-21T09:50:50;11.48;;;4.68;;
61960;SDS011;47923;42.506;24.192;2022-08-21T09:53:21;12.98;;;5.07;;
61960;SDS011;47923;42.506;24.192;2022-08-21T09:56:02;9.63;;;4.85;;
61960;SDS011;47923;42.506;24.192;2022-08-21T09:58:50;8.38;;;4.18;;
61960;SDS011;47923;42.506;24.192;2022-08-21T10:01:21;11.63;;;5.40;;
61960;SDS011;47923;42.506;24.192;2022-08-21T10:03:48;8.73;;;4.60;;
61960;SDS011;47923;42.506;24.192;2022-08-21T10:06:27;10.15;;;4.70;;
61960;SDS011;47923;42.506;24.192;2022-08-21T10:09:04;10.52;;;5.10;;
61960;SDS011;47923;42.506;24.192;2022-08-21T10:11:38;11.75;;;5.18;;
61960;SDS011;47923;42.506;24.192;2022-08-21T10:14:11;16.13;;;4.95;;
61960;SDS011;47923;42.506;24.192;2022-08-21T10:19:51;8.90;;;4.57;;
61960;SDS011;47923;42.506;24.192;2022-08-21T10:25:21;9.50;;;4.63;;
61960;SDS011;47923;42.506;24.192;2022-08-21T10:30:34;11.73;;;4.88;;
61960;SDS011;47923;42.506;24.192;2022-08-21T10:33:16;12.52;;;5.20;;
61960;SDS011;47923;42.506;24.192;2022-08-21T10:36:05;9.77;;;4.53;;
61960;SDS011;47923;42.506;24.192;2022-08-21T10:38:54;8.90;;;4.45;;
61960;SDS011;47923;42.506;24.192;2022-08-21T10:44:30;11.43;;;6.15;;
61960;SDS011;47923;42.506;24.192;2022-08-21T10:52:25;11.27;;;4.75;;
61960;SDS011;47923;42.506;24.192;2022-08-21T10:58:08;13.35;;;5.40;;
61960;SDS011;47923;42.506;24.192;2022-08-21T11:00:46;10.25;;;5.03;;
61960;SDS011;47923;42.506;24.192;2022-08-21T11:03:29;10.60;;;4.38;;
61960;SDS011;47923;42.506;24.192;2022-08-21T11:06:01;12.23;;;4.95;;
61960;SDS011;47923;42.506;24.192;2022-08-21T11:08:45;10.35;;;4.63;;
61960;SDS011;47923;42.506;24.192;2022-08-21T11:14:03;10.07;;;4.40;;
61960;SDS011;47923;42.506;24.192;2022-08-21T11:17:02;8.38;;;3.67;;
61960;SDS011;47923;42.506;24.192;2022-08-21T11:19:35;7.00;;;3.95;;
61960;SDS011;47923;42.506;24.192;2022-08-21T11:22:23;9.13;;;4.40;;
61960;SDS011;47923;42.506;24.192;2022-08-21T11:24:55;8.32;;;3.90;;
61960;SDS011;47923;42.506;24.192;2022-08-21T11:30:00;8.20;;;3.65;;
61960;SDS011;47923;42.506;24.192;2022-08-21T11:32:47;7.93;;;3.72;;
61960;SDS011;47923;42.506;24.192;2022-08-21T11:46:10;9.02;;;3.95;;
61960;SDS011;47923;42.506;24.192;2022-08-21T11:51:50;9.85;;;4.95;;
61960;SDS011;47923;42.506;24.192;2022-08-21T11:57:49;9.57;;;4.90;;
61960;SDS011;47923;42.506;24.192;2022-08-21T12:00:22;13.10;;;5.03;;
61960;SDS011;47923;42.506;24.192;2022-08-21T12:02:56;12.95;;;5.18;;
61960;SDS011;47923;42.506;24.192;2022-08-21T12:05:32;8.73;;;4.72;;
61960;SDS011;47923;42.506;24.192;2022-08-21T12:10:41;11.70;;;4.85;;
61960;SDS011;47923;42.506;24.192;2022-08-21T12:13:27;13.80;;;5.45;;
61960;SDS011;47923;42.506;24.192;2022-08-21T12:16:05;9.02;;;4.95;;
61960;SDS011;47923;42.506;24.192;2022-08-21T12:18:35;9.32;;;5.13;;
61960;SDS011;47923;42.506;24.192;2022-08-21T12:21:17;8.90;;;4.70;;
61960;SDS011;47923;42.506;24.192;2022-08-21T12:29:25;9.10;;;5.15;;
61960;SDS011;47923;42.506;24.192;2022-08-21T12:31:54;10.00;;;5.35;;
61960;SDS011;47923;42.506;24.192;2022-08-21T12:34:20;13.50;;;5.88;;
61960;SDS011;47923;42.506;24.192;2022-08-21T12:36:53;10.55;;;5.32;;
61960;SDS011;47923;42.506;24.192;2022-08-21T12:39:23;14.10;;;5.63;;
61960;SDS011;47923;42.506;24.192;2022-08-21T12:44:31;9.75;;;6.07;;
61960;SDS011;47923;42.506;24.192;2022-08-21T12:47:19;10.60;;;5.35;;
61960;SDS011;47923;42.506;24.192;2022-08-21T12:50:05;12.85;;;6.03;;
61960;SDS011;47923;42.506;24.192;2022-08-21T12:52:40;12.82;;;6.13;;
61960;SDS011;47923;42.506;24.192;2022-08-21T12:55:13;10.18;;;5.90;;
61960;SDS011;47923;42.506;24.192;2022-08-21T12:57:43;8.43;;;5.47;;
61960;SDS011;47923;42.506;24.192;2022-08-21T13:00:09;9.45;;;6.28;;
61960;SDS011;47923;42.506;24.192;2022-08-21T13:02:39;11.25;;;7.07;;
61960;SDS011;47923;42.506;24.192;2022-08-21T13:05:12;11.75;;;7.07;;
61960;SDS011;47923;42.506;24.192;2022-08-21T13:07:44;10.95;;;5.82;;
61960;SDS011;47923;42.506;24.192;2022-08-21T13:10:19;11.63;;;6.20;;
61960;SDS011;47923;42.506;24.192;2022-08-21T13:12:56;11.80;;;6.35;;
61960;SDS011;47923;42.506;24.192;2022-08-21T13:15:32;12.00;;;5.78;;
61960;SDS011;47923;42.506;24.192;2022-08-21T13:18:00;8.40;;;4.78;;
61960;SDS011;47923;42.506;24.192;2022-08-21T13:20:29;8.68;;;4.97;;
61960;SDS011;47923;42.506;24.192;2022-08-21T13:23:00;9.38;;;5.80;;
61960;SDS011;47923;42.506;24.192;2022-08-21T13:25:29;9.98;;;5.15;;
61960;SDS011;47923;42.506;24.192;2022-08-21T13:28:01;9.30;;;5.45;;
61960;SDS011;47923;42.506;24.192;2022-08-21T13:30:31;12.38;;;5.60;;
61960;SDS011;47923;42.506;24.192;2022-08-21T13:32:58;11.70;;;5.53;;
61960;SDS011;47923;42.506;24.192;2022-08-21T13:35:30;10.65;;;5.35;;
61960;SDS011;47923;42.506;24.192;2022-08-21T13:38:01;9.93;;;5.57;;
61960;SDS011;47923;42.506;24.192;2022-08-21T13:40:29;9.43;;;4.82;;
61960;SDS011;47923;42.506;24.192;2022-08-21T13:42:57;11.35;;;5.40;;
61960;SDS011;47923;42.506;24.192;2022-08-21T13:45:27;9.13;;;4.93;;
61960;SDS011;47923;42.506;24.192;2022-08-21T13:47:57;9.90;;;5.38;;
61960;SDS011;47923;42.506;24.192;2022-08-21T13:50:25;9.98;;;5.55;;
61960;SDS011;47923;42.506;24.192;2022-08-21T13:53:02;10.38;;;5.03;;
61960;SDS011;47923;42.506;24.192;2022-08-21T13:55:35;10.50;;;5.60;;
61960;SDS011;47923;42.506;24.192;2022-08-21T13:58:03;9.50;;;5.25;;
61960;SDS011;47923;42.506;24.192;2022-08-21T14:00:31;7.43;;;4.63;;
61960;SDS011;47923;42.506;24.192;2022-08-21T14:03:02;10.75;;;5.47;;
61960;SDS011;47923;42.506;24.192;2022-08-21T14:05:32;7.88;;;5.07;;
61960;SDS011;47923;42.506;24.192;2022-08-21T14:08:08;9.57;;;5.05;;
61960;SDS011;47923;42.506;24.192;2022-08-21T14:10:41;10.35;;;5.55;;
61960;SDS011;47923;42.506;24.192;2022-08-21T14:13:23;11.23;;;6.20;;
61960;SDS011;47923;42.506;24.192;2022-08-21T14:19:10;11.43;;;5.93;;
61960;SDS011;47923;42.506;24.192;2022-08-21T14:21:43;8.43;;;5.43;;
61960;SDS011;47923;42.506;24.192;2022-08-21T14:24:13;9.48;;;5.55;;
61960;SDS011;47923;42.506;24.192;2022-08-21T14:29:19;12.82;;;6.40;;
61960;SDS011;47923;42.506;24.192;2022-08-21T14:31:51;10.60;;;6.22;;
61960;SDS011;47923;42.506;24.192;2022-08-21T14:34:18;10.75;;;6.40;;
61960;SDS011;47923;42.506;24.192;2022-08-21T14:36:46;14.63;;;9.23;;
61960;SDS011;47923;42.506;24.192;2022-08-21T14:39:12;11.98;;;7.05;;
61960;SDS011;47923;42.506;24.192;2022-08-21T14:41:38;13.02;;;7.47;;
61960;SDS011;47923;42.506;24.192;2022-08-21T14:44:03;13.13;;;8.93;;
61960;SDS011;47923;42.506;24.192;2022-08-21T14:46:30;13.00;;;7.57;;
61960;SDS011;47923;42.506;24.192;2022-08-21T14:48:57;11.07;;;7.22;;
61960;SDS011;47923;42.506;24.192;2022-08-21T14:51:23;11.65;;;7.25;;
61960;SDS011;47923;42.506;24.192;2022-08-21T14:53:49;11.20;;;7.22;;
61960;SDS011;47923;42.506;24.192;2022-08-21T14:56:15;11.80;;;8.10;;
61960;SDS011;47923;42.506;24.192;2022-08-21T14:58:45;13.80;;;7.50;;
61960;SDS011;47923;42.506;24.192;2022-08-21T15:01:14;13.98;;;7.95;;
61960;SDS011;47923;42.506;24.192;2022-08-21T15:03:41;11.43;;;7.13;;
61960;SDS011;47923;42.506;24.192;2022-08-21T15:06:07;13.32;;;8.00;;
61960;SDS011;47923;42.506;24.192;2022-08-21T15:08:33;12.40;;;7.60;;
61960;SDS011;47923;42.506;24.192;2022-08-21T15:10:59;15.13;;;7.65;;
61960;SDS011;47923;42.506;24.192;2022-08-21T15:13:27;13.75;;;8.10;;
61960;SDS011;47923;42.506;24.192;2022-08-21T15:15:53;14.43;;;8.82;;
61960;SDS011;47923;42.506;24.192;2022-08-21T15:18:21;14.13;;;8.18;;
61960;SDS011;47923;42.506;24.192;2022-08-21T15:20:47;18.58;;;8.68;;
61960;SDS011;47923;42.506;24.192;2022-08-21T15:23:14;12.63;;;7.55;;
61960;SDS011;47923;42.506;24.192;2022-08-21T15:25:40;11.95;;;7.45;;
61960;SDS011;47923;42.506;24.192;2022-08-21T15:28:08;12.27;;;8.40;;
61960;SDS011;47923;42.506;24.192;2022-08-21T15:30:35;11.40;;;7.55;;
61960;SDS011;47923;42.506;24.192;2022-08-21T15:33:02;12.52;;;7.70;;
61960;SDS011;47923;42.506;24.192;2022-08-21T15:35:28;13.40;;;8.30;;
61960;SDS011;47923;42.506;24.192;2022-08-21T15:37:53;12.07;;;7.88;;
61960;SDS011;47923;42.506;24.192;2022-08-21T15:40:19;13.32;;;8.77;;
61960;SDS011;47923;42.506;24.192;2022-08-21T15:42:44;11.52;;;8.93;;
61960;SDS011;47923;42.506;24.192;2022-08-21T15:45:11;12.40;;;7.72;;
61960;SDS011;47923;42.506;24.192;2022-08-21T15:47:38;14.73;;;8.18;;
61960;SDS011;47923;42.506;24.192;2022-08-21T15:50:08;12.75;;;8.25;;
61960;SDS011;47923;42.506;24.192;2022-08-21T15:52:34;14.43;;;8.70;;
61960;SDS011;47923;42.506;24.192;2022-08-21T15:55:00;13.05;;;7.80;;